sensor_id;sensor_type;location;lat;lon;timestamp;noise_LAeq;noise_LA_min;noise_LA_max;noise_LA01;noise_LA95
71020;Laerm;58902;51.436;5.980;2022-09-09T00:00:05;31.71;30.20;36.44;;
71020;Laerm;58902;51.436;5.980;2022-09-09T00:00:16;39.43;30.48;50.90;;
71020;Laerm;58902;51.436;5.980;2022-09-09T00:00:29;31.70;30.22;36.66;;
71020;Laerm;58902;51.436;5.980;2022-09-09T00:00:47;31.56;29.48;36.54;;
71020;Laerm;58902;51.436;5.980;2022-09-09T00:01:23;30.98;29.56;37.24;;
71020;Laerm;58902;51.436;5.980;2022-09-09T00:02:28;31.96;29.38;37.61;;
71020;Laerm;58902;51.436;5.980;2022-09-09T00:02:39;32.70;31.15;36.38;;
71020;Laerm;58902;51.436;5.980;2022-09-09T00:03:17;31.74;29.82;37.84;;
71020;Laerm;58902;51.436;5.980;2022-09-09T00:03:32;31.14;29.18;36.97;;
71020;Laerm;58902;51.436;5.980;2022-09-09T00:03:59;30.56;28.68;36.38;;
71020;Laerm;58902;51.436;5.980;2022-09-09T00:04:15;30.67;28.85;37.04;;
71020;Laerm;58902;51.436;5.980;2022-09-09T00:04:32;30.43;28.69;38.31;;
71020;Laerm;58902;51.436;5.980;2022-09-09T00:04:42;30.08;28.43;36.54;;
71020;Laerm;58902;51.436;5.980;2022-09-09T00:05:00;30.21;28.55;36.60;;
71020;Laerm;58902;51.436;5.980;2022-09-09T00:06:13;31.42;29.40;35.86;;
71020;Laerm;58902;51.436;5.980;2022-09-09T00:06:32;31.81;29.13;36.68;;
71020;Laerm;58902;51.436;5.980;2022-09-09T00:06:50;34.41;32.62;37.33;;
71020;Laerm;58902;51.436;5.980;2022-09-09T00:07:15;32.26;30.22;36.15;;
71020;Laerm;58902;51.436;5.980;2022-09-09T00:07:49;32.00;30.00;39.19;;
71020;Laerm;58902;51.436;5.980;2022-09-09T00:08:01;31.73;30.32;37.91;;
71020;Laerm;58902;51.436;5.980;2022-09-09T00:08:17;31.88;30.38;36.87;;
71020;Laerm;58902;51.436;5.980;2022-09-09T00:09:08;36.98;30.31;41.14;;
71020;Laerm;58902;51.436;5.980;2022-09-09T00:09:25;40.15;32.82;53.21;;
71020;Laerm;58902;51.436;5.980;2022-09-09T00:09:46;72.54;52.48;77.35;;
71020;Laerm;58902;51.436;5.980;2022-09-09T00:10:30;36.08;31.85;44.44;;
71020;Laerm;58902;51.436;5.980;2022-09-09T00:10:41;33.30;31.20;39.01;;
71020;Laerm;58902;51.436;5.980;2022-09-09T00:10:54;32.60;31.26;38.22;;
71020;Laerm;58902;51.436;5.980;2022-09-09T00:11:08;32.40;30.59;37.65;;
71020;Laerm;58902;51.436;5.980;2022-09-09T00:11:21;32.31;30.91;37.16;;
71020;Laerm;58902;51.436;5.980;2022-09-09T00:11:51;32.05;30.55;36.58;;
71020;Laerm;58902;51.436;5.980;2022-09-09T00:13:30;34.43;30.49;47.97;;
71020;Laerm;58902;51.436;5.980;2022-09-09T00:13:46;38.93;33.70;41.74;;
71020;Laerm;58902;51.436;5.980;2022-09-09T00:13:58;36.45;33.38;39.65;;
71020;Laerm;58902;51.436;5.980;2022-09-09T00:14:18;35.49;32.62;40.16;;
71020;Laerm;58902;51.436;5.980;2022-09-09T00:14:51;69.04;32.96;80.31;;
71020;Laerm;58902;51.436;5.980;2022-09-09T00:15:11;65.53;37.05;75.34;;
71020;Laerm;58902;51.436;5.980;2022-09-09T00:15:24;36.93;32.07;44.59;;
71020;Laerm;58902;51.436;5.980;2022-09-09T00:15:40;33.13;30.83;36.98;;
71020;Laerm;58902;51.436;5.980;2022-09-09T00:16:24;32.08;30.09;38.83;;
71020;Laerm;58902;51.436;5.980;2022-09-09T00:16:36;32.73;30.90;35.94;;
71020;Laerm;58902;51.436;5.980;2022-09-09T00:16:50;33.67;30.90;38.73;;
71020;Laerm;58902;51.436;5.980;2022-09-09T00:17:06;33.97;32.42;37.96;;
71020;Laerm;58902;51.436;5.980;2022-09-09T00:17:30;34.01;32.76;37.51;;
71020;Laerm;58902;51.436;5.980;2022-09-09T00:17:48;33.70;31.50;37.13;;
71020;Laerm;58902;51.436;5.980;2022-09-09T00:19:42;33.98;32.24;38.10;;
71020;Laerm;58902;51.436;5.980;2022-09-09T00:19:56;34.12;32.54;38.42;;
71020;Laerm;58902;51.436;5.980;2022-09-09T00:21:47;31.90;29.50;38.01;;
71020;Laerm;58902;51.436;5.980;2022-09-09T00:22:12;30.49;28.72;37.17;;
71020;Laerm;58902;51.436;5.980;2022-09-09T00:22:24;31.10;28.74;36.96;;
71020;Laerm;58902;51.436;5.980;2022-09-09T00:22:36;31.40;30.01;36.14;;
71020;Laerm;58902;51.436;5.980;2022-09-09T00:22:50;30.97;29.15;35.65;;
71020;Laerm;58902;51.436;5.980;2022-09-09T00:23:25;29.98;28.43;35.40;;
71020;Laerm;58902;51.436;5.980;2022-09-09T00:23:38;29.85;28.11;36.46;;
71020;Laerm;58902;51.436;5.980;2022-09-09T00:23:52;29.82;28.32;36.49;;
71020;Laerm;58902;51.436;5.980;2022-09-09T00:24:37;29.60;27.95;36.60;;
71020;Laerm;58902;51.436;5.980;2022-09-09T00:25:31;29.49;27.63;37.47;;
71020;Laerm;58902;51.436;5.980;2022-09-09T00:25:55;29.34;28.16;33.83;;
71020;Laerm;58902;51.436;5.980;2022-09-09T00:26:19;37.38;28.27;41.76;;
71020;Laerm;58902;51.436;5.980;2022-09-09T00:26:45;70.47;40.88;77.39;;
71020;Laerm;58902;51.436;5.980;2022-09-09T00:27:00;72.75;70.30;78.38;;
71020;Laerm;58902;51.436;5.980;2022-09-09T00:27:34;70.42;53.06;76.71;;
71020;Laerm;58902;51.436;5.980;2022-09-09T00:27:46;66.10;38.71;73.80;;
71020;Laerm;58902;51.436;5.980;2022-09-09T00:27:57;38.69;35.28;45.50;;
71020;Laerm;58902;51.436;5.980;2022-09-09T00:28:13;35.51;31.27;40.94;;
71020;Laerm;58902;51.436;5.980;2022-09-09T00:28:27;32.81;31.13;38.04;;
71020;Laerm;58902;51.436;5.980;2022-09-09T00:28:48;32.93;31.09;35.01;;
71020;Laerm;58902;51.436;5.980;2022-09-09T00:29:53;32.59;30.93;38.16;;
71020;Laerm;58902;51.436;5.980;2022-09-09T00:30:23;32.90;29.50;37.49;;
71020;Laerm;58902;51.436;5.980;2022-09-09T00:30:33;33.60;29.60;39.26;;
71020;Laerm;58902;51.436;5.980;2022-09-09T00:30:45;31.94;28.83;43.45;;
71020;Laerm;58902;51.436;5.980;2022-09-09T00:31:01;29.85;28.42;36.02;;
71020;Laerm;58902;51.436;5.980;2022-09-09T00:31:20;35.87;28.40;51.69;;
71020;Laerm;58902;51.436;5.980;2022-09-09T00:31:33;29.93;28.64;36.77;;
71020;Laerm;58902;51.436;5.980;2022-09-09T00:31:43;29.96;28.92;34.26;;
71020;Laerm;58902;51.436;5.980;2022-09-09T00:31:54;30.05;28.71;37.89;;
71020;Laerm;58902;51.436;5.980;2022-09-09T00:32:16;30.32;29.02;35.52;;
71020;Laerm;58902;51.436;5.980;2022-09-09T00:32:28;30.28;28.93;35.89;;
71020;Laerm;58902;51.436;5.980;2022-09-09T00:32:39;30.14;28.87;36.24;;
71020;Laerm;58902;51.436;5.980;2022-09-09T00:32:54;30.31;29.05;37.55;;
71020;Laerm;58902;51.436;5.980;2022-09-09T00:33:09;30.09;28.67;33.88;;
71020;Laerm;58902;51.436;5.980;2022-09-09T00:33:24;29.99;28.61;36.30;;
71020;Laerm;58902;51.436;5.980;2022-09-09T00:33:34;30.07;28.40;38.85;;
71020;Laerm;58902;51.436;5.980;2022-09-09T00:33:45;31.09;29.09;36.38;;
71020;Laerm;58902;51.436;5.980;2022-09-09T00:34:13;32.52;29.12;37.40;;
71020;Laerm;58902;51.436;5.980;2022-09-09T00:34:26;33.68;29.94;41.54;;
71020;Laerm;58902;51.436;5.980;2022-09-09T00:34:46;32.63;30.01;38.43;;
71020;Laerm;58902;51.436;5.980;2022-09-09T00:35:00;32.24;29.52;48.53;;
71020;Laerm;58902;51.436;5.980;2022-09-09T00:35:17;31.64;29.81;35.58;;
71020;Laerm;58902;51.436;5.980;2022-09-09T00:35:32;31.14;29.53;37.41;;
71020;Laerm;58902;51.436;5.980;2022-09-09T00:35:44;31.12;29.28;35.87;;
71020;Laerm;58902;51.436;5.980;2022-09-09T00:35:56;30.66;29.07;35.85;;
71020;Laerm;58902;51.436;5.980;2022-09-09T00:36:15;30.66;29.55;35.66;;
71020;Laerm;58902;51.436;5.980;2022-09-09T00:36:27;30.85;29.45;36.49;;
71020;Laerm;58902;51.436;5.980;2022-09-09T00:36:39;30.88;29.43;36.68;;
71020;Laerm;58902;51.436;5.980;2022-09-09T00:36:50;31.20;29.67;40.19;;
71020;Laerm;58902;51.436;5.980;2022-09-09T00:37:02;30.73;29.50;35.79;;
71020;Laerm;58902;51.436;5.980;2022-09-09T00:37:13;30.73;29.27;35.22;;
71020;Laerm;58902;51.436;5.980;2022-09-09T00:37:24;30.65;29.32;35.50;;
71020;Laerm;58902;51.436;5.980;2022-09-09T00:37:38;30.93;29.62;37.22;;
71020;Laerm;58902;51.436;5.980;2022-09-09T00:37:53;30.56;29.23;36.60;;
71020;Laerm;58902;51.436;5.980;2022-09-09T00:38:15;30.53;29.15;36.64;;
71020;Laerm;58902;51.436;5.980;2022-09-09T00:38:28;30.31;28.84;36.64;;
71020;Laerm;58902;51.436;5.980;2022-09-09T00:38:56;30.01;28.66;34.39;;
71020;Laerm;58902;51.436;5.980;2022-09-09T00:39:09;30.57;28.71;40.53;;
71020;Laerm;58902;51.436;5.980;2022-09-09T00:39:47;37.18;32.85;45.83;;
71020;Laerm;58902;51.436;5.980;2022-09-09T00:39:59;31.81;29.27;36.13;;
71020;Laerm;58902;51.436;5.980;2022-09-09T00:40:33;30.69;29.39;35.46;;
71020;Laerm;58902;51.436;5.980;2022-09-09T00:41:29;31.93;30.28;37.21;;
71020;Laerm;58902;51.436;5.980;2022-09-09T00:42:42;31.91;29.26;40.58;;
71020;Laerm;58902;51.436;5.980;2022-09-09T00:43:36;34.65;31.77;38.79;;
71020;Laerm;58902;51.436;5.980;2022-09-09T00:43:56;34.25;31.81;40.13;;
71020;Laerm;58902;51.436;5.980;2022-09-09T00:44:37;32.57;29.50;43.33;;
71020;Laerm;58902;51.436;5.980;2022-09-09T00:45:49;30.88;29.03;40.77;;
71020;Laerm;58902;51.436;5.980;2022-09-09T00:46:08;30.82;29.08;37.68;;
71020;Laerm;58902;51.436;5.980;2022-09-09T00:47:22;31.31;28.95;38.66;;
71020;Laerm;58902;51.436;5.980;2022-09-09T00:47:50;34.76;33.71;36.32;;
71020;Laerm;58902;51.436;5.980;2022-09-09T00:48:01;32.71;30.08;36.98;;
71020;Laerm;58902;51.436;5.980;2022-09-09T00:48:17;31.56;30.20;36.85;;
71020;Laerm;58902;51.436;5.980;2022-09-09T00:48:32;31.74;30.34;33.89;;
71020;Laerm;58902;51.436;5.980;2022-09-09T00:50:45;30.66;29.14;42.03;;
71020;Laerm;58902;51.436;5.980;2022-09-09T00:51:02;31.91;29.87;41.20;;
71020;Laerm;58902;51.436;5.980;2022-09-09T00:51:15;32.16;30.76;34.83;;
71020;Laerm;58902;51.436;5.980;2022-09-09T00:52:05;32.95;29.50;37.44;;
71020;Laerm;58902;51.436;5.980;2022-09-09T00:53:13;36.06;31.86;45.26;;
71020;Laerm;58902;51.436;5.980;2022-09-09T00:53:35;42.54;35.48;49.55;;
71020;Laerm;58902;51.436;5.980;2022-09-09T00:55:27;30.34;28.90;40.82;;
71020;Laerm;58902;51.436;5.980;2022-09-09T00:55:59;33.49;30.67;41.46;;
71020;Laerm;58902;51.436;5.980;2022-09-09T00:56:13;31.57;30.04;35.91;;
71020;Laerm;58902;51.436;5.980;2022-09-09T00:57:25;30.17;28.51;40.00;;
71020;Laerm;58902;51.436;5.980;2022-09-09T00:57:37;32.08;29.17;37.97;;
71020;Laerm;58902;51.436;5.980;2022-09-09T00:57:48;33.51;32.33;37.29;;
71020;Laerm;58902;51.436;5.980;2022-09-09T00:58:00;33.17;29.39;37.50;;
71020;Laerm;58902;51.436;5.980;2022-09-09T00:58:10;30.38;29.25;36.14;;
71020;Laerm;58902;51.436;5.980;2022-09-09T00:58:20;30.32;28.75;34.43;;
71020;Laerm;58902;51.436;5.980;2022-09-09T00:58:31;30.63;29.19;38.15;;
71020;Laerm;58902;51.436;5.980;2022-09-09T00:58:48;30.60;29.43;38.44;;
71020;Laerm;58902;51.436;5.980;2022-09-09T00:59:45;31.20;29.65;37.16;;
71020;Laerm;58902;51.436;5.980;2022-09-09T01:00:20;38.34;30.96;52.35;;
71020;Laerm;58902;51.436;5.980;2022-09-09T01:00:32;37.90;30.94;52.19;;
71020;Laerm;58902;51.436;5.980;2022-09-09T01:01:18;31.94;30.90;36.24;;
71020;Laerm;58902;51.436;5.980;2022-09-09T01:01:22;33.08;30.75;43.50;;
71020;Laerm;58902;51.436;5.980;2022-09-09T01:01:32;32.18;29.93;37.23;;
71020;Laerm;58902;51.436;5.980;2022-09-09T01:01:42;30.38;29.11;35.68;;
71020;Laerm;58902;51.436;5.980;2022-09-09T01:01:53;30.29;29.23;34.46;;
71020;Laerm;58902;51.436;5.980;2022-09-09T01:02:09;30.25;29.09;37.00;;
71020;Laerm;58902;51.436;5.980;2022-09-09T01:02:26;30.61;29.24;37.70;;
71020;Laerm;58902;51.436;5.980;2022-09-09T01:03:28;30.80;29.31;38.34;;
71020;Laerm;58902;51.436;5.980;2022-09-09T01:03:56;30.19;28.58;40.77;;
71020;Laerm;58902;51.436;5.980;2022-09-09T01:04:10;30.37;28.95;38.41;;
71020;Laerm;58902;51.436;5.980;2022-09-09T01:04:29;30.32;28.81;37.01;;
71020;Laerm;58902;51.436;5.980;2022-09-09T01:04:44;30.34;28.60;37.92;;
71020;Laerm;58902;51.436;5.980;2022-09-09T01:04:54;30.27;29.19;36.06;;
71020;Laerm;58902;51.436;5.980;2022-09-09T01:05:10;30.37;29.04;37.63;;
71020;Laerm;58902;51.436;5.980;2022-09-09T01:05:44;30.28;28.87;36.14;;
71020;Laerm;58902;51.436;5.980;2022-09-09T01:06:11;29.71;28.32;36.75;;
71020;Laerm;58902;51.436;5.980;2022-09-09T01:06:44;29.87;28.35;34.93;;
71020;Laerm;58902;51.436;5.980;2022-09-09T01:06:59;29.82;28.18;34.69;;
71020;Laerm;58902;51.436;5.980;2022-09-09T01:07:17;30.25;28.61;36.27;;
71020;Laerm;58902;51.436;5.980;2022-09-09T01:07:27;30.83;28.77;37.66;;
71020;Laerm;58902;51.436;5.980;2022-09-09T01:07:38;30.81;29.05;36.59;;
71020;Laerm;58902;51.436;5.980;2022-09-09T01:07:50;32.46;29.41;36.71;;
71020;Laerm;58902;51.436;5.980;2022-09-09T01:08:01;35.51;31.64;39.04;;
71020;Laerm;58902;51.436;5.980;2022-09-09T01:08:41;30.89;28.62;36.84;;
71020;Laerm;58902;51.436;5.980;2022-09-09T01:09:43;32.84;30.64;39.13;;
71020;Laerm;58902;51.436;5.980;2022-09-09T01:09:56;33.53;30.97;38.00;;
71020;Laerm;58902;51.436;5.980;2022-09-09T01:10:09;32.57;30.68;35.32;;
71020;Laerm;58902;51.436;5.980;2022-09-09T01:10:30;32.92;30.59;37.95;;
71020;Laerm;58902;51.436;5.980;2022-09-09T01:10:52;32.62;29.92;40.66;;
71020;Laerm;58902;51.436;5.980;2022-09-09T01:11:03;31.21;29.34;37.10;;
71020;Laerm;58902;51.436;5.980;2022-09-09T01:11:20;32.44;30.14;36.73;;
71020;Laerm;58902;51.436;5.980;2022-09-09T01:11:43;32.45;31.08;40.48;;
71020;Laerm;58902;51.436;5.980;2022-09-09T01:12:42;30.43;28.92;38.81;;
71020;Laerm;58902;51.436;5.980;2022-09-09T01:12:53;30.91;29.50;35.43;;
71020;Laerm;58902;51.436;5.980;2022-09-09T01:13:09;30.94;29.74;35.70;;
71020;Laerm;58902;51.436;5.980;2022-09-09T01:13:24;30.85;29.49;36.77;;
71020;Laerm;58902;51.436;5.980;2022-09-09T01:13:35;31.03;29.80;34.22;;
71020;Laerm;58902;51.436;5.980;2022-09-09T01:13:46;31.06;29.85;35.42;;
71020;Laerm;58902;51.436;5.980;2022-09-09T01:14:49;32.00;30.51;36.95;;
71020;Laerm;58902;51.436;5.980;2022-09-09T01:15:12;31.97;30.70;37.14;;
71020;Laerm;58902;51.436;5.980;2022-09-09T01:15:25;33.07;30.89;37.30;;
71020;Laerm;58902;51.436;5.980;2022-09-09T01:15:36;36.50;30.72;42.91;;
71020;Laerm;58902;51.436;5.980;2022-09-09T01:15:47;39.02;33.94;42.51;;
71020;Laerm;58902;51.436;5.980;2022-09-09T01:15:58;36.03;34.10;38.00;;
71020;Laerm;58902;51.436;5.980;2022-09-09T01:16:10;35.90;34.35;37.39;;
71020;Laerm;58902;51.436;5.980;2022-09-09T01:16:21;35.63;34.01;37.68;;
71020;Laerm;58902;51.436;5.980;2022-09-09T01:16:31;35.87;33.95;37.97;;
71020;Laerm;58902;51.436;5.980;2022-09-09T01:16:42;57.08;35.61;70.88;;
71020;Laerm;58902;51.436;5.980;2022-09-09T01:16:57;69.00;63.27;75.51;;
71020;Laerm;58902;51.436;5.980;2022-09-09T01:17:17;66.38;61.12;70.30;;
71020;Laerm;58902;51.436;5.980;2022-09-09T01:17:31;48.09;36.29;62.85;;
71020;Laerm;58902;51.436;5.980;2022-09-09T01:18:00;35.27;33.23;38.43;;
71020;Laerm;58902;51.436;5.980;2022-09-09T01:18:13;35.52;31.06;41.50;;
71020;Laerm;58902;51.436;5.980;2022-09-09T01:18:27;38.15;30.87;44.79;;
71020;Laerm;58902;51.436;5.980;2022-09-09T01:18:40;33.86;30.35;40.67;;
71020;Laerm;58902;51.436;5.980;2022-09-09T01:18:51;30.66;29.19;36.09;;
71020;Laerm;58902;51.436;5.980;2022-09-09T01:19:03;32.02;29.49;36.73;;
71020;Laerm;58902;51.436;5.980;2022-09-09T01:19:18;32.80;29.99;38.07;;
71020;Laerm;58902;51.436;5.980;2022-09-09T01:19:37;31.07;28.68;36.95;;
71020;Laerm;58902;51.436;5.980;2022-09-09T01:20:05;30.39;28.74;35.95;;
71020;Laerm;58902;51.436;5.980;2022-09-09T01:20:22;37.70;29.06;43.81;;
71020;Laerm;58902;51.436;5.980;2022-09-09T01:20:44;35.70;33.06;45.29;;
71020;Laerm;58902;51.436;5.980;2022-09-09T01:21:41;73.12;68.53;80.34;;
71020;Laerm;58902;51.436;5.980;2022-09-09T01:22:01;71.34;64.70;79.06;;
71020;Laerm;58902;51.436;5.980;2022-09-09T01:22:19;65.64;41.22;74.12;;
71020;Laerm;58902;51.436;5.980;2022-09-09T01:22:36;41.34;36.63;45.46;;
71020;Laerm;58902;51.436;5.980;2022-09-09T01:23:11;37.43;34.28;44.03;;
71020;Laerm;58902;51.436;5.980;2022-09-09T01:24:26;36.82;29.00;47.21;;
71020;Laerm;58902;51.436;5.980;2022-09-09T01:24:42;37.41;28.51;46.59;;
71020;Laerm;58902;51.436;5.980;2022-09-09T01:25:29;30.69;28.54;36.09;;
71020;Laerm;58902;51.436;5.980;2022-09-09T01:26:35;33.30;31.95;37.12;;
71020;Laerm;58902;51.436;5.980;2022-09-09T01:26:51;32.60;30.76;37.04;;
71020;Laerm;58902;51.436;5.980;2022-09-09T01:27:05;31.82;30.56;36.87;;
71020;Laerm;58902;51.436;5.980;2022-09-09T01:27:16;32.05;30.64;36.87;;
71020;Laerm;58902;51.436;5.980;2022-09-09T01:27:28;32.53;30.95;40.53;;
71020;Laerm;58902;51.436;5.980;2022-09-09T01:27:39;31.79;30.41;39.16;;
71020;Laerm;58902;51.436;5.980;2022-09-09T01:27:50;31.95;30.61;36.78;;
71020;Laerm;58902;51.436;5.980;2022-09-09T01:28:02;31.75;30.39;38.45;;
71020;Laerm;58902;51.436;5.980;2022-09-09T01:28:19;32.58;31.10;35.10;;
71020;Laerm;58902;51.436;5.980;2022-09-09T01:28:32;32.84;30.88;38.27;;
71020;Laerm;58902;51.436;5.980;2022-09-09T01:28:43;33.06;30.70;36.78;;
71020;Laerm;58902;51.436;5.980;2022-09-09T01:28:54;34.26;31.33;38.13;;
71020;Laerm;58902;51.436;5.980;2022-09-09T01:29:08;35.36;32.54;41.11;;
71020;Laerm;58902;51.436;5.980;2022-09-09T01:29:19;32.03;29.48;37.79;;
71020;Laerm;58902;51.436;5.980;2022-09-09T01:29:31;31.75;29.63;38.87;;
71020;Laerm;58902;51.436;5.980;2022-09-09T01:29:42;31.37;29.44;36.57;;
71020;Laerm;58902;51.436;5.980;2022-09-09T01:29:53;30.85;29.21;38.08;;
71020;Laerm;58902;51.436;5.980;2022-09-09T01:30:13;30.52;29.19;37.70;;
71020;Laerm;58902;51.436;5.980;2022-09-09T01:30:25;30.53;29.04;35.16;;
71020;Laerm;58902;51.436;5.980;2022-09-09T01:30:38;30.55;29.21;35.57;;
71020;Laerm;58902;51.436;5.980;2022-09-09T01:30:49;30.37;29.12;35.88;;
71020;Laerm;58902;51.436;5.980;2022-09-09T01:30:59;30.07;28.45;35.67;;
71020;Laerm;58902;51.436;5.980;2022-09-09T01:31:11;29.67;28.26;36.14;;
71020;Laerm;58902;51.436;5.980;2022-09-09T01:31:27;29.66;28.10;39.57;;
71020;Laerm;58902;51.436;5.980;2022-09-09T01:31:42;29.46;28.04;36.74;;
71020;Laerm;58902;51.436;5.980;2022-09-09T01:32:39;32.92;28.08;51.48;;
71020;Laerm;58902;51.436;5.980;2022-09-09T01:32:48;29.28;27.92;36.49;;
71020;Laerm;58902;51.436;5.980;2022-09-09T01:32:53;29.46;28.23;35.77;;
71020;Laerm;58902;51.436;5.980;2022-09-09T01:33:04;29.48;27.94;35.49;;
71020;Laerm;58902;51.436;5.980;2022-09-09T01:33:15;29.74;28.34;36.32;;
71020;Laerm;58902;51.436;5.980;2022-09-09T01:33:25;33.62;28.81;40.67;;
71020;Laerm;58902;51.436;5.980;2022-09-09T01:33:36;38.03;30.92;47.29;;
71020;Laerm;58902;51.436;5.980;2022-09-09T01:33:46;45.19;34.47;54.12;;
71020;Laerm;58902;51.436;5.980;2022-09-09T01:33:57;47.24;37.91;55.69;;
71020;Laerm;58902;51.436;5.980;2022-09-09T01:34:13;42.04;35.53;49.27;;
71020;Laerm;58902;51.436;5.980;2022-09-09T01:34:25;37.51;31.90;43.76;;
71020;Laerm;58902;51.436;5.980;2022-09-09T01:34:38;35.53;29.47;42.89;;
71020;Laerm;58902;51.436;5.980;2022-09-09T01:34:49;35.97;30.52;46.47;;
71020;Laerm;58902;51.436;5.980;2022-09-09T01:35:00;33.80;30.54;38.99;;
71020;Laerm;58902;51.436;5.980;2022-09-09T01:35:50;30.11;28.71;36.50;;
71020;Laerm;58902;51.436;5.980;2022-09-09T01:36:08;31.11;28.93;36.20;;
71020;Laerm;58902;51.436;5.980;2022-09-09T01:36:23;31.52;30.05;39.92;;
71020;Laerm;58902;51.436;5.980;2022-09-09T01:37:08;39.96;30.40;48.05;;
71020;Laerm;58902;51.436;5.980;2022-09-09T01:37:16;32.51;30.40;36.84;;
71020;Laerm;58902;51.436;5.980;2022-09-09T01:37:20;31.49;29.90;38.30;;
71020;Laerm;58902;51.436;5.980;2022-09-09T01:37:30;33.54;31.05;38.09;;
71020;Laerm;58902;51.436;5.980;2022-09-09T01:37:41;33.05;31.90;38.25;;
71020;Laerm;58902;51.436;5.980;2022-09-09T01:37:52;32.98;31.24;37.28;;
71020;Laerm;58902;51.436;5.980;2022-09-09T01:38:02;32.77;31.64;36.62;;
71020;Laerm;58902;51.436;5.980;2022-09-09T01:38:12;32.97;31.63;38.46;;
71020;Laerm;58902;51.436;5.980;2022-09-09T01:38:23;32.45;31.19;35.96;;
71020;Laerm;58902;51.436;5.980;2022-09-09T01:38:34;32.35;31.18;36.58;;
71020;Laerm;58902;51.436;5.980;2022-09-09T01:38:46;32.41;31.08;37.99;;
71020;Laerm;58902;51.436;5.980;2022-09-09T01:38:56;32.24;31.13;37.01;;
71020;Laerm;58902;51.436;5.980;2022-09-09T01:39:07;32.42;31.20;39.78;;
71020;Laerm;58902;51.436;5.980;2022-09-09T01:39:17;32.38;31.28;34.87;;
71020;Laerm;58902;51.436;5.980;2022-09-09T01:39:27;32.54;31.45;38.66;;
71020;Laerm;58902;51.436;5.980;2022-09-09T01:39:38;32.57;31.30;39.63;;
71020;Laerm;58902;51.436;5.980;2022-09-09T01:39:49;32.55;31.19;38.32;;
71020;Laerm;58902;51.436;5.980;2022-09-09T01:40:00;32.46;31.15;36.26;;
71020;Laerm;58902;51.436;5.980;2022-09-09T01:40:10;32.61;31.32;37.22;;
71020;Laerm;58902;51.436;5.980;2022-09-09T01:40:20;32.50;31.12;38.48;;
71020;Laerm;58902;51.436;5.980;2022-09-09T01:40:31;32.38;31.35;37.53;;
71020;Laerm;58902;51.436;5.980;2022-09-09T01:40:41;32.37;31.29;36.75;;
71020;Laerm;58902;51.436;5.980;2022-09-09T01:40:52;32.40;30.96;38.51;;
71020;Laerm;58902;51.436;5.980;2022-09-09T01:41:03;32.35;31.06;37.71;;
71020;Laerm;58902;51.436;5.980;2022-09-09T01:41:13;32.28;31.17;36.37;;
71020;Laerm;58902;51.436;5.980;2022-09-09T01:41:24;32.29;30.79;38.49;;
71020;Laerm;58902;51.436;5.980;2022-09-09T01:41:34;32.28;30.89;39.17;;
71020;Laerm;58902;51.436;5.980;2022-09-09T01:41:44;32.38;31.09;39.95;;
71020;Laerm;58902;51.436;5.980;2022-09-09T01:41:55;33.23;30.19;37.58;;
71020;Laerm;58902;51.436;5.980;2022-09-09T01:42:06;34.24;31.57;38.06;;
71020;Laerm;58902;51.436;5.980;2022-09-09T01:42:18;33.63;31.31;43.73;;
71020;Laerm;58902;51.436;5.980;2022-09-09T01:42:29;33.14;29.80;38.41;;
71020;Laerm;58902;51.436;5.980;2022-09-09T01:42:39;33.68;30.25;38.24;;
71020;Laerm;58902;51.436;5.980;2022-09-09T01:42:49;35.35;30.81;41.54;;
71020;Laerm;58902;51.436;5.980;2022-09-09T01:43:00;34.73;30.25;40.99;;
71020;Laerm;58902;51.436;5.980;2022-09-09T01:43:13;34.20;30.47;41.74;;
71020;Laerm;58902;51.436;5.980;2022-09-09T01:43:24;32.62;29.49;38.26;;
71020;Laerm;58902;51.436;5.980;2022-09-09T01:43:35;31.76;29.56;37.60;;
71020;Laerm;58902;51.436;5.980;2022-09-09T01:43:45;31.47;29.14;35.69;;
71020;Laerm;58902;51.436;5.980;2022-09-09T01:43:56;30.98;29.04;39.50;;
71020;Laerm;58902;51.436;5.980;2022-09-09T01:44:07;31.56;29.18;43.45;;
71020;Laerm;58902;51.436;5.980;2022-09-09T01:44:18;30.77;29.10;38.13;;
71020;Laerm;58902;51.436;5.980;2022-09-09T01:44:29;30.27;28.56;36.09;;
71020;Laerm;58902;51.436;5.980;2022-09-09T01:44:39;30.22;28.47;36.39;;
71020;Laerm;58902;51.436;5.980;2022-09-09T01:44:50;30.15;28.47;37.16;;
71020;Laerm;58902;51.436;5.980;2022-09-09T01:45:00;30.19;28.94;36.27;;
71020;Laerm;58902;51.436;5.980;2022-09-09T01:45:11;30.39;29.10;38.43;;
71020;Laerm;58902;51.436;5.980;2022-09-09T01:45:21;30.22;28.46;37.87;;
71020;Laerm;58902;51.436;5.980;2022-09-09T01:45:32;29.87;28.61;36.16;;
71020;Laerm;58902;51.436;5.980;2022-09-09T01:45:43;30.60;28.72;35.21;;
71020;Laerm;58902;51.436;5.980;2022-09-09T01:45:55;30.65;28.76;38.75;;
71020;Laerm;58902;51.436;5.980;2022-09-09T01:46:06;31.70;29.73;35.92;;
71020;Laerm;58902;51.436;5.980;2022-09-09T01:46:17;32.55;30.43;37.98;;
71020;Laerm;58902;51.436;5.980;2022-09-09T01:46:31;33.18;32.00;37.00;;
71020;Laerm;58902;51.436;5.980;2022-09-09T01:46:41;32.92;29.92;36.48;;
71020;Laerm;58902;51.436;5.980;2022-09-09T01:46:51;30.56;29.10;36.26;;
71020;Laerm;58902;51.436;5.980;2022-09-09T01:47:02;30.65;29.19;36.29;;
71020;Laerm;58902;51.436;5.980;2022-09-09T01:47:14;31.83;29.11;37.68;;
71020;Laerm;58902;51.436;5.980;2022-09-09T01:47:24;30.99;29.06;37.25;;
71020;Laerm;58902;51.436;5.980;2022-09-09T01:47:35;30.21;28.92;36.98;;
71020;Laerm;58902;51.436;5.980;2022-09-09T01:47:46;30.82;29.11;37.17;;
71020;Laerm;58902;51.436;5.980;2022-09-09T01:47:57;32.21;28.46;43.82;;
71020;Laerm;58902;51.436;5.980;2022-09-09T01:48:08;39.52;36.17;43.31;;
71020;Laerm;58902;51.436;5.980;2022-09-09T01:48:18;36.38;32.70;40.74;;
71020;Laerm;58902;51.436;5.980;2022-09-09T01:48:29;35.08;32.61;39.19;;
71020;Laerm;58902;51.436;5.980;2022-09-09T01:48:40;35.15;32.78;37.93;;
71020;Laerm;58902;51.436;5.980;2022-09-09T01:48:51;49.48;33.00;61.73;;
71020;Laerm;58902;51.436;5.980;2022-09-09T01:49:03;72.50;61.41;78.96;;
71020;Laerm;58902;51.436;5.980;2022-09-09T01:49:14;73.35;67.10;81.61;;
71020;Laerm;58902;51.436;5.980;2022-09-09T01:49:26;55.46;44.79;67.99;;
71020;Laerm;58902;51.436;5.980;2022-09-09T01:49:36;44.98;42.82;47.40;;
71020;Laerm;58902;51.436;5.980;2022-09-09T01:49:46;42.90;40.34;45.62;;
71020;Laerm;58902;51.436;5.980;2022-09-09T01:49:57;41.08;38.97;43.17;;
71020;Laerm;58902;51.436;5.980;2022-09-09T01:50:08;39.87;38.55;41.61;;
71020;Laerm;58902;51.436;5.980;2022-09-09T01:50:21;46.29;38.42;58.21;;
71020;Laerm;58902;51.436;5.980;2022-09-09T01:50:32;75.55;57.73;79.25;;
71020;Laerm;58902;51.436;5.980;2022-09-09T01:50:42;77.39;74.41;81.44;;
71020;Laerm;58902;51.436;5.980;2022-09-09T01:50:53;70.03;38.32;78.87;;
71020;Laerm;58902;51.436;5.980;2022-09-09T01:51:03;37.17;34.45;42.07;;
71020;Laerm;58902;51.436;5.980;2022-09-09T01:51:14;36.02;32.99;39.11;;
71020;Laerm;58902;51.436;5.980;2022-09-09T01:51:24;35.55;33.54;38.02;;
71020;Laerm;58902;51.436;5.980;2022-09-09T01:51:35;36.10;33.87;38.56;;
71020;Laerm;58902;51.436;5.980;2022-09-09T01:51:46;70.16;35.62;80.50;;
71020;Laerm;58902;51.436;5.980;2022-09-09T01:51:59;76.42;69.67;87.06;;
71020;Laerm;58902;51.436;5.980;2022-09-09T01:52:10;64.87;52.73;77.93;;